sensor_id;sensor_type;location;lat;lon;timestamp;temperature;humidity
41694;DHT22;27377;50.666;9.150;2023-03-14T00:01:58;10.00;99.90
41694;DHT22;27377;50.666;9.150;2023-03-14T00:04:24;10.00;99.90
41694;DHT22;27377;50.666;9.150;2023-03-14T00:06:49;10.00;99.90
41694;DHT22;27377;50.666;9.150;2023-03-14T00:09:16;10.00;99.90
41694;DHT22;27377;50.666;9.150;2023-03-14T00:11:42;9.90;99.90
41694;DHT22;27377;50.666;9.150;2023-03-14T00:14:08;9.90;99.90
41694;DHT22;27377;50.666;9.150;2023-03-14T00:16:33;9.90;99.90
41694;DHT22;27377;50.666;9.150;2023-03-14T00:18:59;9.90;99.90
41694;DHT22;27377;50.666;9.150;2023-03-14T00:21:25;9.90;99.90
41694;DHT22;27377;50.666;9.150;2023-03-14T00:23:51;9.90;99.90
41694;DHT22;27377;50.666;9.150;2023-03-14T00:26:19;9.90;99.90
41694;DHT22;27377;50.666;9.150;2023-03-14T00:28:45;9.90;99.90
41694;DHT22;27377;50.666;9.150;2023-03-14T00:31:13;9.90;99.90
41694;DHT22;27377;50.666;9.150;2023-03-14T00:33:39;9.90;99.90
41694;DHT22;27377;50.666;9.150;2023-03-14T00:36:10;9.90;99.90
41694;DHT22;27377;50.666;9.150;2023-03-14T00:38:37;9.90;99.90
41694;DHT22;27377;50.666;9.150;2023-03-14T00:41:07;9.90;99.90
41694;DHT22;27377;50.666;9.150;2023-03-14T00:43:33;9.90;99.90
41694;DHT22;27377;50.666;9.150;2023-03-14T00:45:59;9.90;99.90
41694;DHT22;27377;50.666;9.150;2023-03-14T00:48:24;9.90;99.90
41694;DHT22;27377;50.666;9.150;2023-03-14T00:50:50;9.90;99.90
41694;DHT22;27377;50.666;9.150;2023-03-14T00:53:16;9.90;99.90
41694;DHT22;27377;50.666;9.150;2023-03-14T00:55:43;9.90;99.90
41694;DHT22;27377;50.666;9.150;2023-03-14T00:58:09;9.90;99.90
41694;DHT22;27377;50.666;9.150;2023-03-14T01:00:36;9.90;99.90
41694;DHT22;27377;50.666;9.150;2023-03-14T01:03:02;9.90;99.90
41694;DHT22;27377;50.666;9.150;2023-03-14T01:05:28;9.90;99.90
41694;DHT22;27377;50.666;9.150;2023-03-14T01:07:54;9.90;99.90
41694;DHT22;27377;50.666;9.150;2023-03-14T01:10:20;9.90;99.90
41694;DHT22;27377;50.666;9.150;2023-03-14T01:12:45;9.90;99.90
41694;DHT22;27377;50.666;9.150;2023-03-14T01:15:11;9.90;99.90
41694;DHT22;27377;50.666;9.150;2023-03-14T01:17:36;9.90;99.90
41694;DHT22;27377;50.666;9.150;2023-03-14T01:20:05;9.90;99.90
41694;DHT22;27377;50.666;9.150;2023-03-14T01:22:34;9.90;99.90
41694;DHT22;27377;50.666;9.150;2023-03-14T01:25:00;9.90;99.90
41694;DHT22;27377;50.666;9.150;2023-03-14T01:27:25;9.90;99.90
41694;DHT22;27377;50.666;9.150;2023-03-14T01:29:51;9.90;99.90
41694;DHT22;27377;50.666;9.150;2023-03-14T01:32:17;9.80;99.90
41694;DHT22;27377;50.666;9.150;2023-03-14T01:34:42;9.80;99.90
41694;DHT22;27377;50.666;9.150;2023-03-14T01:37:08;9.80;99.90
41694;DHT22;27377;50.666;9.150;2023-03-14T01:39:33;9.80;99.90
41694;DHT22;27377;50.666;9.150;2023-03-14T01:42:00;9.80;99.90
41694;DHT22;27377;50.666;9.150;2023-03-14T01:44:26;9.80;99.90
41694;DHT22;27377;50.666;9.150;2023-03-14T01:46:51;9.80;99.90
41694;DHT22;27377;50.666;9.150;2023-03-14T01:49:27;9.80;99.90
41694;DHT22;27377;50.666;9.150;2023-03-14T01:52:23;9.80;99.90
41694;DHT22;27377;50.666;9.150;2023-03-14T01:54:52;9.80;99.90
41694;DHT22;27377;50.666;9.150;2023-03-14T01:57:23;9.80;99.90
41694;DHT22;27377;50.666;9.150;2023-03-14T01:59:54;9.80;99.90
41694;DHT22;27377;50.666;9.150;2023-03-14T02:02:23;9.80;99.90
41694;DHT22;27377;50.666;9.150;2023-03-14T02:04:49;9.80;99.90
41694;DHT22;27377;50.666;9.150;2023-03-14T02:07:32;9.80;99.90
41694;DHT22;27377;50.666;9.150;2023-03-14T02:09:59;9.80;99.90
41694;DHT22;27377;50.666;9.150;2023-03-14T02:12:27;9.80;99.90
41694;DHT22;27377;50.666;9.150;2023-03-14T02:14:53;9.80;99.90
41694;DHT22;27377;50.666;9.150;2023-03-14T02:17:19;9.80;99.90
41694;DHT22;27377;50.666;9.150;2023-03-14T02:22:40;9.80;99.90
41694;DHT22;27377;50.666;9.150;2023-03-14T02:25:20;9.70;99.90
41694;DHT22;27377;50.666;9.150;2023-03-14T02:27:49;9.80;99.90
41694;DHT22;27377;50.666;9.150;2023-03-14T02:30:19;9.70;99.90
41694;DHT22;27377;50.666;9.150;2023-03-14T02:32:47;9.70;99.90
41694;DHT22;27377;50.666;9.150;2023-03-14T02:35:18;9.70;99.90
41694;DHT22;27377;50.666;9.150;2023-03-14T02:37:55;9.70;99.90
41694;DHT22;27377;50.666;9.150;2023-03-14T02:40:22;9.70;99.90
41694;DHT22;27377;50.666;9.150;2023-03-14T02:42:48;9.70;99.90
41694;DHT22;27377;50.666;9.150;2023-03-14T02:47:43;9.70;99.90
41694;DHT22;27377;50.666;9.150;2023-03-14T02:50:13;9.70;99.90
41694;DHT22;27377;50.666;9.150;2023-03-14T02:52:39;9.70;99.90
41694;DHT22;27377;50.666;9.150;2023-03-14T02:55:05;9.70;99.90
41694;DHT22;27377;50.666;9.150;2023-03-14T02:57:31;9.70;99.90
41694;DHT22;27377;50.666;9.150;2023-03-14T03:00:00;9.70;99.90
41694;DHT22;27377;50.666;9.150;2023-03-14T03:02:27;9.70;99.90
41694;DHT22;27377;50.666;9.150;2023-03-14T03:04:52;9.70;99.90
41694;DHT22;27377;50.666;9.150;2023-03-14T03:07:18;9.70;99.90
41694;DHT22;27377;50.666;9.150;2023-03-14T03:09:44;9.70;99.90
41694;DHT22;27377;50.666;9.150;2023-03-14T03:12:10;9.70;99.90
41694;DHT22;27377;50.666;9.150;2023-03-14T03:14:35;9.70;99.90
41694;DHT22;27377;50.666;9.150;2023-03-14T03:17:03;9.70;99.90
41694;DHT22;27377;50.666;9.150;2023-03-14T03:19:29;9.70;99.90
41694;DHT22;27377;50.666;9.150;2023-03-14T03:21:54;9.70;99.90
41694;DHT22;27377;50.666;9.150;2023-03-14T03:24:20;9.70;99.90
41694;DHT22;27377;50.666;9.150;2023-03-14T03:26:45;9.70;99.90
41694;DHT22;27377;50.666;9.150;2023-03-14T03:29:11;9.70;99.90
41694;DHT22;27377;50.666;9.150;2023-03-14T03:31:38;9.70;99.90
41694;DHT22;27377;50.666;9.150;2023-03-14T03:34:04;9.70;99.90
41694;DHT22;27377;50.666;9.150;2023-03-14T03:36:29;9.70;99.90
41694;DHT22;27377;50.666;9.150;2023-03-14T03:38:55;9.60;99.90
41694;DHT22;27377;50.666;9.150;2023-03-14T03:41:20;9.60;99.90
41694;DHT22;27377;50.666;9.150;2023-03-14T03:43:46;9.60;99.90
41694;DHT22;27377;50.666;9.150;2023-03-14T03:46:11;9.60;99.90
41694;DHT22;27377;50.666;9.150;2023-03-14T03:48:37;9.60;99.90
41694;DHT22;27377;50.666;9.150;2023-03-14T03:51:03;9.60;99.90
41694;DHT22;27377;50.666;9.150;2023-03-14T03:53:29;9.50;99.90
41694;DHT22;27377;50.666;9.150;2023-03-14T03:55:55;9.60;99.90
41694;DHT22;27377;50.666;9.150;2023-03-14T03:58:20;9.60;99.90
41694;DHT22;27377;50.666;9.150;2023-03-14T04:00:46;9.50;99.90
41694;DHT22;27377;50.666;9.150;2023-03-14T04:03:11;9.50;99.90
41694;DHT22;27377;50.666;9.150;2023-03-14T04:05:37;9.50;99.90
41694;DHT22;27377;50.666;9.150;2023-03-14T04:08:03;9.50;99.90
41694;DHT22;27377;50.666;9.150;2023-03-14T04:10:29;9.50;99.90
41694;DHT22;27377;50.666;9.150;2023-03-14T04:12:54;9.50;99.90
41694;DHT22;27377;50.666;9.150;2023-03-14T04:15:20;9.50;99.90
41694;DHT22;27377;50.666;9.150;2023-03-14T04:17:45;9.40;99.90
41694;DHT22;27377;50.666;9.150;2023-03-14T04:20:11;9.50;99.90
41694;DHT22;27377;50.666;9.150;2023-03-14T04:22:38;9.40;99.90
41694;DHT22;27377;50.666;9.150;2023-03-14T04:25:05;9.40;99.90
41694;DHT22;27377;50.666;9.150;2023-03-14T04:27:31;9.40;99.90
41694;DHT22;27377;50.666;9.150;2023-03-14T04:29:56;9.40;99.90
41694;DHT22;27377;50.666;9.150;2023-03-14T04:32:22;9.40;99.90
41694;DHT22;27377;50.666;9.150;2023-03-14T04:34:47;9.40;99.90
41694;DHT22;27377;50.666;9.150;2023-03-14T04:37:13;9.40;99.90
41694;DHT22;27377;50.666;9.150;2023-03-14T04:39:39;9.30;99.90
41694;DHT22;27377;50.666;9.150;2023-03-14T04:42:04;9.40;99.90
41694;DHT22;27377;50.666;9.150;2023-03-14T04:44:31;9.40;99.90
41694;DHT22;27377;50.666;9.150;2023-03-14T04:46:56;9.30;99.90
41694;DHT22;27377;50.666;9.150;2023-03-14T04:49:22;9.30;99.90
41694;DHT22;27377;50.666;9.150;2023-03-14T04:51:47;9.30;99.90
41694;DHT22;27377;50.666;9.150;2023-03-14T04:54:13;9.30;99.90
41694;DHT22;27377;50.666;9.150;2023-03-14T04:56:38;9.30;99.90
41694;DHT22;27377;50.666;9.150;2023-03-14T04:59:04;9.30;99.90
41694;DHT22;27377;50.666;9.150;2023-03-14T05:01:30;9.30;99.90
41694;DHT22;27377;50.666;9.150;2023-03-14T05:03:55;9.30;99.90
41694;DHT22;27377;50.666;9.150;2023-03-14T05:06:21;9.30;99.90
41694;DHT22;27377;50.666;9.150;2023-03-14T05:08:47;9.30;99.90
41694;DHT22;27377;50.666;9.150;2023-03-14T05:11:12;9.30;99.90
41694;DHT22;27377;50.666;9.150;2023-03-14T05:13:38;9.30;99.90
41694;DHT22;27377;50.666;9.150;2023-03-14T05:16:05;9.30;99.90
41694;DHT22;27377;50.666;9.150;2023-03-14T05:18:31;9.30;99.90
41694;DHT22;27377;50.666;9.150;2023-03-14T05:20:57;9.30;99.90
41694;DHT22;27377;50.666;9.150;2023-03-14T05:23:22;9.30;99.90
41694;DHT22;27377;50.666;9.150;2023-03-14T05:25:48;9.30;99.90
41694;DHT22;27377;50.666;9.150;2023-03-14T05:28:13;9.30;99.90
41694;DHT22;27377;50.666;9.150;2023-03-14T05:30:39;9.30;99.90
41694;DHT22;27377;50.666;9.150;2023-03-14T05:33:05;9.30;99.90
41694;DHT22;27377;50.666;9.150;2023-03-14T05:35:30;9.30;99.90
41694;DHT22;27377;50.666;9.150;2023-03-14T05:37:56;9.30;99.90
41694;DHT22;27377;50.666;9.150;2023-03-14T05:40:22;9.30;99.90
41694;DHT22;27377;50.666;9.150;2023-03-14T05:42:47;9.30;99.90
41694;DHT22;27377;50.666;9.150;2023-03-14T05:45:13;9.30;99.90
41694;DHT22;27377;50.666;9.150;2023-03-14T05:47:39;9.40;99.90
41694;DHT22;27377;50.666;9.150;2023-03-14T05:50:05;9.40;99.90
41694;DHT22;27377;50.666;9.150;2023-03-14T05:52:31;9.30;99.90
41694;DHT22;27377;50.666;9.150;2023-03-14T05:54:57;9.40;99.90
41694;DHT22;27377;50.666;9.150;2023-03-14T05:57:22;9.40;99.90
41694;DHT22;27377;50.666;9.150;2023-03-14T05:59:48;9.30;99.90
41694;DHT22;27377;50.666;9.150;2023-03-14T06:02:16;9.30;99.90
41694;DHT22;27377;50.666;9.150;2023-03-14T06:04:42;9.30;99.90
41694;DHT22;27377;50.666;9.150;2023-03-14T06:07:08;9.30;99.90
41694;DHT22;27377;50.666;9.150;2023-03-14T06:09:34;9.30;99.90
41694;DHT22;27377;50.666;9.150;2023-03-14T06:12:00;9.30;99.90
41694;DHT22;27377;50.666;9.150;2023-03-14T06:14:25;9.30;99.90
41694;DHT22;27377;50.666;9.150;2023-03-14T06:16:51;9.30;99.90
41694;DHT22;27377;50.666;9.150;2023-03-14T06:19:18;9.30;99.90
41694;DHT22;27377;50.666;9.150;2023-03-14T06:21:44;9.30;99.90
41694;DHT22;27377;50.666;9.150;2023-03-14T06:24:09;9.30;99.90
41694;DHT22;27377;50.666;9.150;2023-03-14T06:26:35;9.30;99.90
41694;DHT22;27377;50.666;9.150;2023-03-14T06:29:01;9.30;99.90
41694;DHT22;27377;50.666;9.150;2023-03-14T06:31:32;9.30;99.90
41694;DHT22;27377;50.666;9.150;2023-03-14T06:33:58;9.30;99.90
41694;DHT22;27377;50.666;9.150;2023-03-14T06:36:24;9.30;99.90
41694;DHT22;27377;50.666;9.150;2023-03-14T06:38:52;9.30;99.90
41694;DHT22;27377;50.666;9.150;2023-03-14T06:41:18;9.30;99.90
41694;DHT22;27377;50.666;9.150;2023-03-14T06:43:44;9.30;99.90
41694;DHT22;27377;50.666;9.150;2023-03-14T06:46:10;9.30;99.90
41694;DHT22;27377;50.666;9.150;2023-03-14T06:48:36;9.30;99.90
41694;DHT22;27377;50.666;9.150;2023-03-14T06:51:11;9.30;99.90
41694;DHT22;27377;50.666;9.150;2023-03-14T06:53:36;9.30;99.90
41694;DHT22;27377;50.666;9.150;2023-03-14T06:56:03;9.30;99.90
41694;DHT22;27377;50.666;9.150;2023-03-14T06:58:29;9.30;99.90
41694;DHT22;27377;50.666;9.150;2023-03-14T07:00:58;9.30;99.90
41694;DHT22;27377;50.666;9.150;2023-03-14T07:03:25;9.30;99.90
41694;DHT22;27377;50.666;9.150;2023-03-14T07:05:51;9.30;99.90
41694;DHT22;27377;50.666;9.150;2023-03-14T07:08:17;9.30;99.90
41694;DHT22;27377;50.666;9.150;2023-03-14T07:10:43;9.30;99.90
41694;DHT22;27377;50.666;9.150;2023-03-14T07:13:09;9.30;99.90
41694;DHT22;27377;50.666;9.150;2023-03-14T07:15:35;9.20;99.90
41694;DHT22;27377;50.666;9.150;2023-03-14T07:18:01;9.20;99.90
41694;DHT22;27377;50.666;9.150;2023-03-14T07:20:26;9.20;99.90
41694;DHT22;27377;50.666;9.150;2023-03-14T07:22:52;9.20;99.90
41694;DHT22;27377;50.666;9.150;2023-03-14T07:25:18;9.20;99.90
41694;DHT22;27377;50.666;9.150;2023-03-14T07:27:45;9.20;99.90
41694;DHT22;27377;50.666;9.150;2023-03-14T07:30:11;9.20;99.90
41694;DHT22;27377;50.666;9.150;2023-03-14T07:32:37;9.20;99.90
41694;DHT22;27377;50.666;9.150;2023-03-14T07:35:03;9.20;99.90
41694;DHT22;27377;50.666;9.150;2023-03-14T07:37:29;9.20;99.90
41694;DHT22;27377;50.666;9.150;2023-03-14T07:39:55;9.20;99.90
41694;DHT22;27377;50.666;9.150;2023-03-14T07:42:21;9.20;99.90
41694;DHT22;27377;50.666;9.150;2023-03-14T07:44:47;9.20;99.90
41694;DHT22;27377;50.666;9.150;2023-03-14T07:47:13;9.20;99.90
41694;DHT22;27377;50.666;9.150;2023-03-14T07:49:38;9.20;99.90
41694;DHT22;27377;50.666;9.150;2023-03-14T07:52:04;9.20;99.90
41694;DHT22;27377;50.666;9.150;2023-03-14T07:54:32;9.20;99.90
41694;DHT22;27377;50.666;9.150;2023-03-14T07:56:58;9.20;99.90
41694;DHT22;27377;50.666;9.150;2023-03-14T07:59:26;9.20;99.90
41694;DHT22;27377;50.666;9.150;2023-03-14T08:01:52;9.30;99.90
41694;DHT22;27377;50.666;9.150;2023-03-14T08:04:18;9.30;99.90
41694;DHT22;27377;50.666;9.150;2023-03-14T08:06:43;9.30;99.90
41694;DHT22;27377;50.666;9.150;2023-03-14T08:09:10;9.30;99.90
41694;DHT22;27377;50.666;9.150;2023-03-14T08:11:36;9.30;99.90
41694;DHT22;27377;50.666;9.150;2023-03-14T08:14:01;9.30;99.90
41694;DHT22;27377;50.666;9.150;2023-03-14T08:16:27;9.30;99.90
41694;DHT22;27377;50.666;9.150;2023-03-14T08:18:53;9.40;99.90
41694;DHT22;27377;50.666;9.150;2023-03-14T08:21:19;9.40;99.90
41694;DHT22;27377;50.666;9.150;2023-03-14T08:23:45;9.40;99.90
41694;DHT22;27377;50.666;9.150;2023-03-14T08:26:11;9.40;99.90
41694;DHT22;27377;50.666;9.150;2023-03-14T08:28:37;9.40;99.90
41694;DHT22;27377;50.666;9.150;2023-03-14T08:31:03;9.40;99.90
41694;DHT22;27377;50.666;9.150;2023-03-14T08:33:29;9.40;99.90
41694;DHT22;27377;50.666;9.150;2023-03-14T08:35:57;9.40;99.90
41694;DHT22;27377;50.666;9.150;2023-03-14T08:38:23;9.40;99.90
41694;DHT22;27377;50.666;9.150;2023-03-14T08:40:49;9.40;99.90
41694;DHT22;27377;50.666;9.150;2023-03-14T08:43:15;9.30;99.90
41694;DHT22;27377;50.666;9.150;2023-03-14T08:45:41;9.30;99.90
41694;DHT22;27377;50.666;9.150;2023-03-14T08:48:07;9.40;99.90
41694;DHT22;27377;50.666;9.150;2023-03-14T08:50:33;9.30;99.90
41694;DHT22;27377;50.666;9.150;2023-03-14T08:52:58;9.30;99.90
41694;DHT22;27377;50.666;9.150;2023-03-14T08:55:26;9.30;99.90
41694;DHT22;27377;50.666;9.150;2023-03-14T08:57:53;9.30;99.90
41694;DHT22;27377;50.666;9.150;2023-03-14T09:00:19;9.30;99.90
41694;DHT22;27377;50.666;9.150;2023-03-14T09:02:45;9.30;99.90
41694;DHT22;27377;50.666;9.150;2023-03-14T09:05:11;9.40;99.90
41694;DHT22;27377;50.666;9.150;2023-03-14T09:07:38;9.40;99.90
41694;DHT22;27377;50.666;9.150;2023-03-14T09:10:04;9.40;99.90
41694;DHT22;27377;50.666;9.150;2023-03-14T09:12:30;9.40;99.90
41694;DHT22;27377;50.666;9.150;2023-03-14T09:14:56;9.50;99.90
41694;DHT22;27377;50.666;9.150;2023-03-14T09:17:21;9.40;99.90
41694;DHT22;27377;50.666;9.150;2023-03-14T09:19:47;9.50;99.90
41694;DHT22;27377;50.666;9.150;2023-03-14T09:22:12;9.50;99.90
41694;DHT22;27377;50.666;9.150;2023-03-14T09:24:38;9.50;99.90
41694;DHT22;27377;50.666;9.150;2023-03-14T09:27:05;9.40;99.90
41694;DHT22;27377;50.666;9.150;2023-03-14T09:29:30;9.40;99.90
41694;DHT22;27377;50.666;9.150;2023-03-14T09:31:57;9.50;99.90
41694;DHT22;27377;50.666;9.150;2023-03-14T09:34:23;9.50;99.90
41694;DHT22;27377;50.666;9.150;2023-03-14T09:36:48;9.50;99.90
41694;DHT22;27377;50.666;9.150;2023-03-14T09:39:14;9.50;99.90
41694;DHT22;27377;50.666;9.150;2023-03-14T09:41:43;9.50;99.90
41694;DHT22;27377;50.666;9.150;2023-03-14T09:44:24;9.50;99.90
41694;DHT22;27377;50.666;9.150;2023-03-14T09:46:54;9.50;99.90
41694;DHT22;27377;50.666;9.150;2023-03-14T09:49:30;9.50;99.90
41694;DHT22;27377;50.666;9.150;2023-03-14T09:51:58;9.60;99.90
41694;DHT22;27377;50.666;9.150;2023-03-14T09:55:04;9.60;99.90
41694;DHT22;27377;50.666;9.150;2023-03-14T09:57:32;9.60;99.90
41694;DHT22;27377;50.666;9.150;2023-03-14T10:00:03;9.60;99.90
41694;DHT22;27377;50.666;9.150;2023-03-14T10:02:40;9.60;99.90
41694;DHT22;27377;50.666;9.150;2023-03-14T10:05:25;9.60;99.90
41694;DHT22;27377;50.666;9.150;2023-03-14T10:07:53;9.60;99.90
41694;DHT22;27377;50.666;9.150;2023-03-14T10:10:21;9.60;99.90
41694;DHT22;27377;50.666;9.150;2023-03-14T10:12:56;9.70;99.90
41694;DHT22;27377;50.666;9.150;2023-03-14T10:15:31;9.70;99.90
41694;DHT22;27377;50.666;9.150;2023-03-14T10:18:01;9.70;99.90
41694;DHT22;27377;50.666;9.150;2023-03-14T10:20:34;9.80;99.90
41694;DHT22;27377;50.666;9.150;2023-03-14T10:23:04;9.80;99.90
41694;DHT22;27377;50.666;9.150;2023-03-14T10:25:33;9.90;99.90
41694;DHT22;27377;50.666;9.150;2023-03-14T10:27:59;9.90;99.90
41694;DHT22;27377;50.666;9.150;2023-03-14T10:30:40;9.90;99.90
41694;DHT22;27377;50.666;9.150;2023-03-14T10:33:25;10.00;99.90
41694;DHT22;27377;50.666;9.150;2023-03-14T10:36:19;9.90;99.90
41694;DHT22;27377;50.666;9.150;2023-03-14T10:38:47;10.00;99.90
41694;DHT22;27377;50.666;9.150;2023-03-14T10:41:23;9.90;99.90
41694;DHT22;27377;50.666;9.150;2023-03-14T10:43:51;10.00;99.90
41694;DHT22;27377;50.666;9.150;2023-03-14T10:46:19;10.00;99.90
41694;DHT22;27377;50.666;9.150;2023-03-14T10:48:45;10.00;99.90
41694;DHT22;27377;50.666;9.150;2023-03-14T10:51:19;10.00;99.90
41694;DHT22;27377;50.666;9.150;2023-03-14T10:56:21;10.10;99.90
41694;DHT22;27377;50.666;9.150;2023-03-14T10:58:58;10.20;99.90
41694;DHT22;27377;50.666;9.150;2023-03-14T11:01:51;10.20;99.90
41694;DHT22;27377;50.666;9.150;2023-03-14T11:04:29;10.20;99.90
41694;DHT22;27377;50.666;9.150;2023-03-14T11:07:33;10.20;99.90
41694;DHT22;27377;50.666;9.150;2023-03-14T11:13:01;10.20;99.90
41694;DHT22;27377;50.666;9.150;2023-03-14T11:18:26;10.20;99.90
41694;DHT22;27377;50.666;9.150;2023-03-14T11:23:53;10.20;99.90
41694;DHT22;27377;50.666;9.150;2023-03-14T11:29:27;10.20;99.90
41694;DHT22;27377;50.666;9.150;2023-03-14T11:31:56;10.20;99.90
41694;DHT22;27377;50.666;9.150;2023-03-14T11:34:28;10.20;99.90
41694;DHT22;27377;50.666;9.150;2023-03-14T11:37:00;10.20;99.90
41694;DHT22;27377;50.666;9.150;2023-03-14T11:39:34;10.20;99.90
41694;DHT22;27377;50.666;9.150;2023-03-14T11:42:03;10.20;99.90
41694;DHT22;27377;50.666;9.150;2023-03-14T11:44:39;10.20;99.90
41694;DHT22;27377;50.666;9.150;2023-03-14T11:47:26;10.20;99.90
41694;DHT22;27377;50.666;9.150;2023-03-14T11:50:20;10.20;99.90
41694;DHT22;27377;50.666;9.150;2023-03-14T11:52:52;10.20;99.90
41694;DHT22;27377;50.666;9.150;2023-03-14T11:55:27;10.20;99.90
41694;DHT22;27377;50.666;9.150;2023-03-14T11:57:58;10.20;99.90
41694;DHT22;27377;50.666;9.150;2023-03-14T12:00:25;10.20;99.90
41694;DHT22;27377;50.666;9.150;2023-03-14T12:06:24;10.20;99.90
41694;DHT22;27377;50.666;9.150;2023-03-14T12:08:56;10.10;99.90
41694;DHT22;27377;50.666;9.150;2023-03-14T12:14:27;10.10;99.90
41694;DHT22;27377;50.666;9.150;2023-03-14T12:16:56;10.10;99.90
41694;DHT22;27377;50.666;9.150;2023-03-14T12:24:48;10.00;99.90
41694;DHT22;27377;50.666;9.150;2023-03-14T12:35:48;9.80;99.90
41694;DHT22;27377;50.666;9.150;2023-03-14T12:43:48;9.60;99.90
41694;DHT22;27377;50.666;9.150;2023-03-14T12:46:23;9.60;99.90
41694;DHT22;27377;50.666;9.150;2023-03-14T12:48:50;9.60;99.90
41694;DHT22;27377;50.666;9.150;2023-03-14T12:51:21;9.50;99.90
41694;DHT22;27377;50.666;9.150;2023-03-14T13:04:42;9.10;99.90
41694;DHT22;27377;50.666;9.150;2023-03-14T13:07:35;9.00;99.90
41694;DHT22;27377;50.666;9.150;2023-03-14T13:10:19;8.90;99.90
41694;DHT22;27377;50.666;9.150;2023-03-14T13:13:03;8.90;99.90
41694;DHT22;27377;50.666;9.150;2023-03-14T13:15:38;8.90;99.90
41694;DHT22;27377;50.666;9.150;2023-03-14T13:18:17;8.90;99.90
41694;DHT22;27377;50.666;9.150;2023-03-14T13:20:51;8.80;99.90
41694;DHT22;27377;50.666;9.150;2023-03-14T13:23:23;8.80;99.90
41694;DHT22;27377;50.666;9.150;2023-03-14T13:25:49;8.80;99.90
41694;DHT22;27377;50.666;9.150;2023-03-14T13:28:15;8.80;99.90
41694;DHT22;27377;50.666;9.150;2023-03-14T13:30:44;8.80;99.90
41694;DHT22;27377;50.666;9.150;2023-03-14T13:33:21;8.80;99.90
41694;DHT22;27377;50.666;9.150;2023-03-14T13:36:02;8.80;99.90
41694;DHT22;27377;50.666;9.150;2023-03-14T13:38:31;8.80;99.90
41694;DHT22;27377;50.666;9.150;2023-03-14T13:40:59;8.80;99.90
41694;DHT22;27377;50.666;9.150;2023-03-14T13:43:41;8.80;99.90
41694;DHT22;27377;50.666;9.150;2023-03-14T13:46:22;8.80;99.90
41694;DHT22;27377;50.666;9.150;2023-03-14T13:48:50;8.70;99.90
41694;DHT22;27377;50.666;9.150;2023-03-14T13:51:18;8.70;99.90
41694;DHT22;27377;50.666;9.150;2023-03-14T13:53:50;8.60;99.90
41694;DHT22;27377;50.666;9.150;2023-03-14T13:56:18;8.60;99.90
41694;DHT22;27377;50.666;9.150;2023-03-14T13:58:44;8.60;99.90
41694;DHT22;27377;50.666;9.150;2023-03-14T14:01:14;8.50;99.90
41694;DHT22;27377;50.666;9.150;2023-03-14T14:03:42;8.50;99.90
41694;DHT22;27377;50.666;9.150;2023-03-14T14:06:28;8.40;99.90
41694;DHT22;27377;50.666;9.150;2023-03-14T14:08:56;8.40;99.90
41694;DHT22;27377;50.666;9.150;2023-03-14T14:11:48;8.40;99.90
41694;DHT22;27377;50.666;9.150;2023-03-14T14:14:22;8.30;99.90
41694;DHT22;27377;50.666;9.150;2023-03-14T14:16:51;8.40;99.90
41694;DHT22;27377;50.666;9.150;2023-03-14T14:19:17;8.40;99.90
41694;DHT22;27377;50.666;9.150;2023-03-14T14:21:44;8.40;99.90
41694;DHT22;27377;50.666;9.150;2023-03-14T14:24:13;8.30;99.90
41694;DHT22;27377;50.666;9.150;2023-03-14T14:26:41;8.30;99.90
41694;DHT22;27377;50.666;9.150;2023-03-14T14:29:25;8.30;99.90
41694;DHT22;27377;50.666;9.150;2023-03-14T14:32:12;8.20;99.90
41694;DHT22;27377;50.666;9.150;2023-03-14T14:34:39;8.30;99.90
41694;DHT22;27377;50.666;9.150;2023-03-14T14:37:26;8.30;99.90
41694;DHT22;27377;50.666;9.150;2023-03-14T14:39:55;8.20;99.90
41694;DHT22;27377;50.666;9.150;2023-03-14T14:42:29;8.30;99.90
41694;DHT22;27377;50.666;9.150;2023-03-14T14:44:56;8.10;99.90
41694;DHT22;27377;50.666;9.150;2023-03-14T14:47:25;8.10;99.90
41694;DHT22;27377;50.666;9.150;2023-03-14T14:49:53;8.10;99.90
41694;DHT22;27377;50.666;9.150;2023-03-14T14:52:22;8.00;99.90
41694;DHT22;27377;50.666;9.150;2023-03-14T14:54:59;8.00;99.90
41694;DHT22;27377;50.666;9.150;2023-03-14T14:57:32;7.90;99.90
41694;DHT22;27377;50.666;9.150;2023-03-14T15:00:05;8.00;99.90
41694;DHT22;27377;50.666;9.150;2023-03-14T15:02:37;8.00;99.90
41694;DHT22;27377;50.666;9.150;2023-03-14T15:05:25;7.80;99.90
41694;DHT22;27377;50.666;9.150;2023-03-14T15:07:51;7.70;99.90
41694;DHT22;27377;50.666;9.150;2023-03-14T15:10:22;7.70;99.90
41694;DHT22;27377;50.666;9.150;2023-03-14T15:12:48;7.60;99.90
41694;DHT22;27377;50.666;9.150;2023-03-14T15:15:15;7.60;99.90
41694;DHT22;27377;50.666;9.150;2023-03-14T15:17:42;7.60;99.90
41694;DHT22;27377;50.666;9.150;2023-03-14T15:20:13;7.60;99.90
41694;DHT22;27377;50.666;9.150;2023-03-14T15:22:39;7.50;99.90
41694;DHT22;27377;50.666;9.150;2023-03-14T15:25:06;7.50;99.90
41694;DHT22;27377;50.666;9.150;2023-03-14T15:27:32;7.40;99.90
41694;DHT22;27377;50.666;9.150;2023-03-14T15:29:58;7.40;99.90
41694;DHT22;27377;50.666;9.150;2023-03-14T15:32:24;7.40;99.90
41694;DHT22;27377;50.666;9.150;2023-03-14T15:34:55;7.40;99.90
41694;DHT22;27377;50.666;9.150;2023-03-14T15:37:21;7.40;99.90
41694;DHT22;27377;50.666;9.150;2023-03-14T15:39:47;7.40;99.90
41694;DHT22;27377;50.666;9.150;2023-03-14T15:42:12;7.30;99.90
41694;DHT22;27377;50.666;9.150;2023-03-14T15:44:38;7.40;99.90
41694;DHT22;27377;50.666;9.150;2023-03-14T15:47:09;7.40;99.90
41694;DHT22;27377;50.666;9.150;2023-03-14T15:49:35;7.50;99.90
41694;DHT22;27377;50.666;9.150;2023-03-14T15:52:00;7.50;99.90
41694;DHT22;27377;50.666;9.150;2023-03-14T15:54:27;7.50;99.90
41694;DHT22;27377;50.666;9.150;2023-03-14T15:56:57;7.40;99.90
41694;DHT22;27377;50.666;9.150;2023-03-14T15:59:23;7.40;99.90
41694;DHT22;27377;50.666;9.150;2023-03-14T16:01:49;7.40;99.90
41694;DHT22;27377;50.666;9.150;2023-03-14T16:04:15;7.30;99.90
41694;DHT22;27377;50.666;9.150;2023-03-14T16:06:40;7.30;99.90
41694;DHT22;27377;50.666;9.150;2023-03-14T16:09:06;7.40;99.90
41694;DHT22;27377;50.666;9.150;2023-03-14T16:11:32;7.40;99.90
41694;DHT22;27377;50.666;9.150;2023-03-14T16:13:57;7.40;99.90
41694;DHT22;27377;50.666;9.150;2023-03-14T16:16:23;7.30;99.90
41694;DHT22;27377;50.666;9.150;2023-03-14T16:18:48;7.30;99.90
41694;DHT22;27377;50.666;9.150;2023-03-14T16:21:16;7.30;99.90
41694;DHT22;27377;50.666;9.150;2023-03-14T16:23:43;7.30;99.90
41694;DHT22;27377;50.666;9.150;2023-03-14T16:26:11;7.30;99.90
41694;DHT22;27377;50.666;9.150;2023-03-14T16:28:37;7.20;99.90
41694;DHT22;27377;50.666;9.150;2023-03-14T16:31:06;7.30;99.90
41694;DHT22;27377;50.666;9.150;2023-03-14T16:33:33;7.20;99.90
41694;DHT22;27377;50.666;9.150;2023-03-14T16:36:01;7.20;99.90
41694;DHT22;27377;50.666;9.150;2023-03-14T16:38:31;7.20;99.90
41694;DHT22;27377;50.666;9.150;2023-03-14T16:43:22;7.20;99.90
41694;DHT22;27377;50.666;9.150;2023-03-14T16:45:49;7.20;99.90
41694;DHT22;27377;50.666;9.150;2023-03-14T16:48:14;7.20;99.90
41694;DHT22;27377;50.666;9.150;2023-03-14T16:50:41;7.20;99.90
41694;DHT22;27377;50.666;9.150;2023-03-14T16:53:07;7.10;99.90